Tiempo atmosférico en la estación meteorológica de Morón De Almazán , Soria (978 m.)



Fecha
DESCASC
Temp. máxima en grados centígrados (hora)
DESCASC
Temp. mínima en grados centígrados (hora)
DESCASC
Temp. media en grados centígrados
DESCASC
Racha de viento máxima en m/sg (hora)
DESCASC
Velocidad máxima media en intervalos de 10 minutos(hora)
DESCASC
Precipitaciones diarias en mm
DESCASC
Precipitaciones de 00:00 a 06:00 en mm
DESCASC
Precipitaciones de 06:00 a 12:00 en mm
DESCASC
Precipitaciones de 12:00 a 18:00 en mm
DESCASC
Precipitaciones de 18:00 a 24:00 en mm
DESCASC
16-06-2019 28 (18:50) 3.7 (06:30) 15.9 8.89 (13:40) 5 (16:10) 0 0 0 0 0
15-06-2019 23.8 (19:00) 3.9 (06:10) 13.8 10 (13:50) 5.83 (09:10) 0 0 0 0 0
14-06-2019 23.3 (14:40) 8.8 (07:00) 16 14.72 (15:50) 8.61 (17:20) 0 0 0 0 0
13-06-2019 25.1 (19:20) 4.9 (00:00) 15 11.94 (17:20) 6.11 (13:30) 0 0 0 0 0
12-06-2019 21.5 (18:30) -0.2 (00:00) 10.6 10.83 (17:40) 6.11 (17:40) 0 0 0 0 0
11-06-2019 16.1 (18:30) 5.1 (00:00) 10.6 11.39 (14:20) 7.78 (14:20) 2.8 0 0.2 2.6 0
10-06-2019 20.9 (17:30) 4.8 (00:00) 12.8 11.39 (16:00) 8.06 (16:50) 0 0 0 0 0
09-06-2019 25.6 (17:50) 8.3 (00:00) 17 12.22 (14:00) 6.67 (22:50) 0 0 0 0 0
08-06-2019 23.9 (16:10) 0.2 (00:00) 12 10 (10:30) 6.39 (10:30) 0 0 0 0 0
07-06-2019 18 (18:50) 5.4 (00:00) 11.7 15.56 (09:10) 10.56 (09:00) 0.8 0.6 0.2 0 0
06-06-2019 21.4 (18:30) 4.1 (00:00) 12.7 16.11 (15:40) 9.72 (17:10) 0 0 0 0 0
05-06-2019 17.5 (18:50) 5.7 (00:00) 11.6 18.61 (11:00) 11.94 (11:00) 12.2 6.4 5.6 0.2 0
04-06-2019 27.2 (16:50) 6.2 (00:00) 16.7 15 (15:00) 9.17 (13:40) 0 0 0 0 0
03-06-2019 30.1 (16:30) 10.5 (00:00) 20.3 16.11 (16:00) 7.22 (15:30) 0 0 0 0 0
02-06-2019 31.1 (17:20) 6.8 (00:00) 19 15.28 (22:40) 7.22 (22:30) 1 0 0 0 1
01-06-2019 31.6 (18:10) 5.1 (00:00) 18.4 6.39 (15:10) 3.61 (22:00) 0 0 0 0 0
31-05-2019 30.7 (17:40) 3.2 (00:00) 17 7.78 (19:40) 5.28 (19:40) 0 0 0 0 0
30-05-2019 25.9 (17:50) 2.3 (00:00) 14.1 10 (13:30) 5.56 (16:20) 0 0 0 0 0
29-05-2019 18.7 (18:00) 1.7 (00:00) 10.2 13.33 (14:40) 8.06 (10:20) 0 0 0 0 0
28-05-2019 17.2 (15:10) 3.8 (00:00) 10.5 13.33 (18:00) 10 (18:10) 0 0 0 0 0
27-05-2019 22.9 (14:20) 2.4 (00:00) 12.6 11.11 (18:10) 8.33 (18:00) 0 0 0 0 0
26-05-2019 19.4 (17:10) 3 (00:00) 11.2 12.78 (15:20) 8.89 (15:20) 0 0 0 0 0
25-05-2019 17.1 (17:50) 5.8 (00:00) 11.5 13.06 (15:50) 8.06 (10:30) 0 0 0 0 0
24-05-2019 16.1 (16:00) 7.6 (00:00) 11.9 13.33 (16:10) 9.17 (19:40) 0.2 0.2 0 0 0
23-05-2019 24.4 (14:30) 6.5 (00:00) 15.4 16.67 (18:10) 6.67 (18:20) 2.6 0 0 0 2.6
22-05-2019 24.1 (17:50) 1.9 (00:00) 13 8.61 (14:40) 4.72 (14:40) 0 0 0 0 0

Gráficas

Temp. máximas Temp. mínimas Temp. medias Precipitaciones Rachas de viento máximas Velocidades máximas media en intervalos de 10 minutos

Datos horarios

Fecha y hora oficial Temperatura (ºC) Velocidad del viento (km/h) Dirección del viento Racha (km/h) Dirección de racha Precipitación (mm) Presión (hPa) Tendencia (hPa) Humedad (%)
2019-06-20 23:00:00 14.7 6 Nordeste 23 Norte 0 -- -- 74
2019-06-20 22:00:00 16.1 18 Nordeste 36 Norte 0 -- -- 72
2019-06-20 21:00:00 17.6 20 Norte 40 Nordeste 0 -- -- 67
2019-06-20 20:00:00 19.3 24 Nordeste 41 Norte 0 -- -- 61
2019-06-20 19:00:00 23.8 14 Sudoeste 30 Sur 0 -- -- 41
2019-06-20 18:00:00 26.6 15 Sur 29 Sur 0 -- -- 31
2019-06-20 17:00:00 25.4 15 Sur 29 Sudeste 0 -- -- 31
2019-06-20 16:00:00 24.4 5 Nordeste 20 Noroeste 0 -- -- 37
2019-06-20 15:00:00 25.5 7 Este 18 Norte 0 -- -- 35
2019-06-20 14:00:00 25.2 5 Este 12 Nordeste 0 -- -- 36
2019-06-20 13:00:00 23.9 4 Noroeste 17 Este 0 -- -- 44
2019-06-20 12:00:00 22.2 7 Sudeste 19 Nordeste 0 -- -- 48
2019-06-20 11:00:00 20.9 7 Norte 16 Norte 0 -- -- 53
2019-06-20 10:00:00 19.2 2 Sudeste 7 Oeste 0 -- -- 62
2019-06-20 09:00:00 15.5 4 Oeste 9 Oeste 0 -- -- 72
2019-06-20 08:00:00 12.3 2 Sudoeste 4 Este 0 -- -- 86
2019-06-20 07:00:00 8.6 0 Calma 5 Este 0 -- -- 93
2019-06-20 06:00:00 9.1 0 Calma 5 Nordeste 0 -- -- 92
2019-06-20 05:00:00 9 3 Este 6 Nordeste 0 -- -- 91
2019-06-20 04:00:00 9.2 0 Calma 4 Noroeste 0 -- -- 91
2019-06-20 03:00:00 10.2 3 Noroeste 19 Nordeste 0 -- -- 93
2019-06-20 02:00:00 10.8 3 Este 19 Nordeste 0 -- -- 89
2019-06-20 01:00:00 12.2 0 Calma 4 Oeste 0 -- -- 85
2019-06-20 00:00:00 14.6 3 Oeste 8 Oeste 0 -- -- 72
2019-06-19 23:00:00 16.5 2 Sudoeste 9 Sudoeste 0 -- -- 68
2019-06-19 22:00:00 17.7 3 Sudoeste 35 Noroeste 0 -- -- 63
2019-06-19 21:00:00 21.2 8 Oeste 27 Sudoeste 0 -- -- 47
2019-06-19 20:00:00 23 17 Sudoeste 28 Sudoeste 0 -- -- 39
2019-06-19 19:00:00 26.1 16 Sur 31 Sur 0 -- -- 34
2019-06-19 18:00:00 25.7 14 Sudoeste 33 Sur 0 -- -- 33
2019-06-19 17:00:00 25.6 17 Sudoeste 36 Sur 0 -- -- 35
2019-06-19 16:00:00 25.6 17 Sudoeste 31 Sudoeste 0 -- -- 36
2019-06-19 15:00:00 23.6 7 Noroeste 18 Oeste 0 -- -- 42
2019-06-19 14:00:00 22.5 5 Oeste 22 Oeste 0 -- -- 46
2019-06-19 13:00:00 22.4 10 Oeste 22 Oeste 0 -- -- 47
2019-06-19 12:00:00 21.4 6 Noroeste 18 Oeste 0 -- -- 51
2019-06-19 11:00:00 19.5 10 Noroeste 17 Noroeste 0 -- -- 57
2019-06-19 10:00:00 18.4 9 Oeste 15 Oeste 0 -- -- 59
2019-06-19 09:00:00 16.5 5 Oeste 11 Oeste 0 -- -- 65
2019-06-19 08:00:00 12.8 2 Este 4 Este 0 -- -- 67
2019-06-19 07:00:00 8.5 3 Este 6 Este 0 -- -- 80
2019-06-19 06:00:00 7.9 4 Este 6 Este 0 -- -- 80
2019-06-19 05:00:00 7.7 4 Este 6 Este 0 -- -- 79
2019-06-19 04:00:00 8.3 5 Este 8 Este 0 -- -- 73
2019-06-19 03:00:00 8.7 3 Sudeste 6 Nordeste 0 -- -- 71
2019-06-19 02:00:00 9.7 4 Este 6 Nordeste 0 -- -- 64
2019-06-19 01:00:00 10.8 7 Este 9 Nordeste 0 -- -- 55
2019-06-19 00:00:00 13.7 3 Noroeste 21 Oeste 0 -- -- 40
2019-06-18 23:00:00 16.1 10 Sur 21 Sudoeste 0 -- -- 31
2019-06-18 22:00:00 21.3 12 Sudoeste 34 Sudoeste 0 -- -- 20
2019-06-18 21:00:00 25 15 Sudoeste 37 Sudoeste 0 -- -- 17
2019-06-18 20:00:00 26.7 22 Sudoeste 48 Sudoeste 0 -- -- 19
2019-06-18 19:00:00 27.5 24 Sudoeste 43 Sur 0 -- -- 21
2019-06-18 18:00:00 28 25 Sudoeste 44 Sudoeste 0 -- -- 21
2019-06-18 17:00:00 28.3 18 Sudoeste 41 Sudoeste 0 -- -- 19
2019-06-18 16:00:00 27.9 28 Sudoeste 49 Sudoeste 0 -- -- 19
2019-06-18 15:00:00 27.5 24 Sudoeste 48 Sur 0 -- -- 21
2019-06-18 14:00:00 26.3 23 Sur 44 Sudoeste 0 -- -- 24
2019-06-18 13:00:00 25.9 24 Sur 46 Sur 0 -- -- 25
2019-06-18 12:00:00 25 22 Sudoeste 38 Sur 0 -- -- 27
2019-06-18 11:00:00 22.1 14 Sur 31 Sur 0 -- -- 33
2019-06-18 10:00:00 20.8 16 Sur 31 Sur 0 -- -- 37
2019-06-18 09:00:00 19.5 17 Sur 30 Sur 0 -- -- 43
2019-06-18 08:00:00 16.5 4 Sudeste 11 Sur 0 -- -- 53
2019-06-18 07:00:00 11.4 6 Este 11 Este 0 -- -- 65
2019-06-18 06:00:00 12.9 5 Este 9 Este 0 -- -- 57
2019-06-18 05:00:00 13.6 3 Este 10 Este 0 -- -- 64
2019-06-18 04:00:00 13.1 6 Este 8 Este 0 -- -- 63
2019-06-18 03:00:00 14.3 0 Calma 4 Oeste 0 -- -- 58
2019-06-18 02:00:00 15.5 0 Calma 4 Sudoeste 0 -- -- 54
2019-06-18 01:00:00 15.7 0 Calma 11 Oeste 0 -- -- 51
2019-06-18 00:00:00 16.9 6 Nordeste 8 Nordeste 0 -- -- 51
2019-06-17 23:00:00 19.8 0 Calma 14 Sur 0 -- -- 37
2019-06-17 22:00:00 20.8 5 Sur 16 Sudoeste 0 -- -- 34
2019-06-17 21:00:00 24 7 Sudoeste 16 Sudoeste 0 -- -- 27
2019-06-17 20:00:00 26 12 Sudoeste 28 Sur 0 -- -- 20
2019-06-17 19:00:00 29.5 14 Sudoeste 32 Sur 0 -- -- 18
2019-06-17 18:00:00 29.9 14 Sur 31 Sur 0 -- -- 18
2019-06-17 17:00:00 28.9 14 Sur 43 Sur 0 -- -- 21
2019-06-17 16:00:00 28.3 15 Sur 33 Sur 0 -- -- 20
2019-06-17 15:00:00 28.1 11 Sur 33 Sur 0 -- -- 21
2019-06-17 14:00:00 27.8 12 Sudoeste 27 Sur 0 -- -- 22
2019-06-17 13:00:00 26.5 10 Sur 25 Sudeste 0 -- -- 24
2019-06-17 12:00:00 25.8 8 Sudoeste 15 Sur 0 -- -- 28
2019-06-17 11:00:00 24 5 Sur 14 Sudeste 0 -- -- 35
2019-06-17 10:00:00 20.8 6 Sudeste 11 Sudeste 0 -- -- 46
2019-06-17 09:00:00 18.3 3 Este 6 Este 0 -- -- 49
2019-06-17 08:00:00 11.2 3 Este 8 Nordeste 0 -- -- 70
2019-06-17 07:00:00 7.1 3 Nordeste 5 Norte 0 -- -- 81
2019-06-17 06:00:00 8.8 2 Norte 9 Norte 0 -- -- 74
2019-06-17 05:00:00 11.2 3 Noroeste 9 Sudoeste 0 -- -- 65
2019-06-17 04:00:00 13.1 2 Sur 16 Sudoeste 0 -- -- 56
2019-06-17 03:00:00 14.1 4 Sur 17 Oeste 0 -- -- 53
2019-06-17 02:00:00 13 5 Este 11 Sudeste 0 -- -- 55
2019-06-17 01:00:00 13.3 5 Este 8 Este 0 -- -- 60
2019-06-17 00:00:00 16.1 6 Este 17 Este 0 -- -- 51
2019-06-16 23:00:00 19 9 Este 18 Este 0 -- -- 41
2019-06-16 22:00:00 18.3 5 Sur 13 Sudoeste 0 -- -- 39
2019-06-16 21:00:00 23.9 7 Sudoeste 19 Sudoeste 0 -- -- 26
2019-06-16 20:00:00 25.5 11 Sudoeste 29 Oeste 0 -- -- 24
2019-06-16 19:00:00 27.9 9 Sudoeste 26 Sudoeste 0 -- -- 22
2019-06-16 18:00:00 27.8 9 Sudoeste 29 Sur 0 -- -- 23
2019-06-16 17:00:00 27.3 16 Sur 31 Sur 0 -- -- 21
2019-06-16 16:00:00 27 12 Sur 29 Sur 0 -- -- 22
2019-06-16 15:00:00 26.4 11 Sur 30 Sudoeste 0 -- -- 22
2019-06-16 14:00:00 25.7 8 Sur 32 Sur 0 -- -- 24
2019-06-16 13:00:00 23.5 9 Sur 17 Este 0 -- -- 31
2019-06-16 12:00:00 22.2 7 Este 16 Este 0 -- -- 32
2019-06-16 11:00:00 18.9 10 Este 23 Sudeste 0 -- -- 40
2019-06-16 10:00:00 17.1 13 Este 22 Este 0 -- -- 44
2019-06-16 09:00:00 14.4 9 Sudeste 14 Sudeste 0 -- -- 54
2019-06-16 08:00:00 7.5 0 Calma 4 Este 0 -- -- 82
2019-06-16 07:00:00 3.9 4 Este 5 Este 0 -- -- 89
2019-06-16 06:00:00 4.5 3 Este 5 Nordeste 0 -- -- 89
2019-06-16 05:00:00 4.8 4 Nordeste 6 Nordeste 0 -- -- 88
2019-06-16 04:00:00 6.3 4 Nordeste 8 Nordeste 0 -- -- 82
2019-06-16 03:00:00 6.9 5 Este 8 Este 0 -- -- 81
2019-06-16 02:00:00 9.4 5 Este 14 Este 0 -- -- 70
2019-06-16 01:00:00 10 6 Este 16 Este 0 -- -- 69
2019-06-16 00:00:00 11.6 11 Este 23 Nordeste 0 -- -- 65
2019-06-15 23:00:00 12.9 11 Nordeste 22 Nordeste 0 -- -- 61
2019-06-15 22:00:00 15 12 Nordeste 23 Norte 0 -- -- 54
2019-06-15 21:00:00 20.7 10 Norte 17 Norte 0 -- -- 30
2019-06-15 20:00:00 23 10 Oeste 22 Noroeste 0 -- -- 28
2019-06-15 19:00:00 23.8 9 Oeste 27 Noroeste 0 -- -- 29
2019-06-15 18:00:00 22.8 9 Noroeste 24 Oeste 0 -- -- 27
2019-06-15 17:00:00 21.9 17 Noroeste 34 Noroeste 0 -- -- 29
2019-06-15 16:00:00 21.6 15 Noroeste 32 Noroeste 0 -- -- 29
2019-06-15 15:00:00 20.6 15 Oeste 32 Oeste 0 -- -- 32
2019-06-15 14:00:00 19.2 15 Oeste 36 Oeste 0 -- -- 36
2019-06-15 13:00:00 18.3 14 Oeste 28 Oeste 0 -- -- 39
2019-06-15 12:00:00 16.9 13 Oeste 24 Oeste 0 -- -- 43
2019-06-15 11:00:00 15.2 15 Oeste 30 Noroeste 0 -- -- 51
2019-06-15 10:00:00 12.9 19 Oeste 30 Oeste 0 -- -- 59
2019-06-15 09:00:00 11.2 18 Oeste 27 Oeste 0 -- -- 64
2019-06-15 08:00:00 9.5 12 Oeste 17 Oeste 0 -- -- 69
2019-06-15 07:00:00 4.8 0 Calma 8 Oeste 0 -- -- 84
2019-06-15 06:00:00 4.1 4 Noroeste 8 Noroeste 0 -- -- 82
2019-06-15 05:00:00 5.5 0 Calma 7 Oeste 0 -- -- 74
2019-06-15 04:00:00 6.8 3 Noroeste 8 Noroeste 0 -- -- 67
2019-06-15 03:00:00 8 2 Sudoeste 15 Oeste 0 -- -- 66
2019-06-15 02:00:00 9.2 4 Oeste 14 Oeste 0 -- -- 57
2019-06-15 01:00:00 11.3 5 Oeste 22 Oeste 0 -- -- 49
2019-06-15 00:00:00 14.9 15 Sudoeste 41 Sudoeste 0 -- -- 35
2019-06-14 23:00:00 16.2 21 Sudoeste 33 Sudoeste 0 -- -- 33
2019-06-14 22:00:00 17 17 Sudoeste 36 Sur 0 -- -- 31
2019-06-14 21:00:00 19.8 19 Sur 40 Sur 0 -- -- 27
2019-06-14 20:00:00 21.7 26 Sur 45 Sudoeste 0 -- -- 24
2019-06-14 19:00:00 22.8 25 Sur 45 Sur 0 -- -- 23
2019-06-14 18:00:00 23.2 27 Sudoeste 49 Sudoeste 0 -- -- 22
2019-06-14 17:00:00 23.3 27 Sudoeste 51 Sudoeste 0 -- -- 22
2019-06-14 16:00:00 22.9 28 Sudoeste 53 Sur 0 -- -- 26
2019-06-14 15:00:00 22.9 24 Sudoeste 44 Sudoeste 0 -- -- 28
2019-06-14 14:00:00 22.7 21 Sudoeste 40 Sur 0 -- -- 32
2019-06-14 13:00:00 21.7 24 Sur 45 Sudoeste 0 -- -- 34
2019-06-14 12:00:00 21 21 Sur 32 Sudoeste 0 -- -- 34
2019-06-14 11:00:00 19.9 7 Sudoeste 20 Sur 0 -- -- 39
2019-06-14 10:00:00 16.6 6 Este 9 Este 0 -- -- 55
2019-06-14 09:00:00 12.5 0 Calma 5 Este 0 -- -- 75
2019-06-14 08:00:00 9.9 0 Calma 4 Este 0 -- -- 84
2019-06-14 07:00:00 8.8 0 Calma 8 Sur 0 -- -- 83
2019-06-14 06:00:00 9.9 4 Sudeste 10 Este 0 -- -- 89
2019-06-14 05:00:00 9.9 0 Calma 3 Sudeste 0 -- -- 91
2019-06-14 04:00:00 10.9 3 Este 5 Sur 0 -- -- 89
2019-06-14 03:00:00 11.9 0 Calma 6 Nordeste 0 -- -- 84
2019-06-14 02:00:00 13.1 0 Calma 8 Nordeste 0 -- -- 79
2019-06-14 01:00:00 13.6 4 Este 14 Nordeste 0 -- -- 72
2019-06-14 00:00:00 14.4 4 Sudeste 15 Sur 0 -- -- 65
2019-06-13 23:00:00 17.5 11 Sur 16 Sur 0 -- -- 52
2019-06-13 22:00:00 16.4 2 Sudeste 12 Sudeste 0 -- -- 57
2019-06-13 21:00:00 20.7 9 Sur 24 Sur 0 -- -- 41
2019-06-13 20:00:00 23.3 13 Sur 28 Sur 0 -- -- 36
2019-06-13 19:00:00 24.7 14 Sudeste 35 Sudeste 0 -- -- 35
2019-06-13 18:00:00 23.4 20 Sur 43 Sur 0 -- -- 35
2019-06-13 17:00:00 23.6 19 Sur 36 Sur 0 -- -- 36
2019-06-13 16:00:00 23.1 17 Sur 35 Sur 0 -- -- 38
2019-06-13 15:00:00 22.9 12 Sur 37 Sur 0 -- -- 38
2019-06-13 14:00:00 21.8 19 Sur 42 Sur 0 -- -- 37
2019-06-13 13:00:00 21.5 18 Sur 35 Sur 0 -- -- 40
2019-06-13 12:00:00 20.1 16 Sur 35 Sur 0 -- -- 46
2019-06-13 11:00:00 18.1 20 Sur 35 Sur 0 -- -- 53
2019-06-13 10:00:00 15.9 21 Sur 37 Sur 0 -- -- 64
2019-06-13 09:00:00 13.1 6 Sudeste 21 Sur 0 -- -- 74
2019-06-13 08:00:00 9.2 4 Sudeste 9 Sudeste 0 -- -- 83
2019-06-13 07:00:00 5.3 3 Sudeste 9 Sudeste 0 -- -- 91
2019-06-13 06:00:00 5.7 5 Este 12 Este 0 -- -- 89
2019-06-13 05:00:00 5.1 2 Este 8 Este 0 -- -- 87
2019-06-13 04:00:00 7.7 8 Sudeste 15 Sudeste 0 -- -- 73
2019-06-13 03:00:00 7.5 5 Este 22 Este 0 -- -- 74
2019-06-13 02:00:00 10.6 11 Sudeste 20 Este 0 -- -- 59
2019-06-13 01:00:00 11.3 10 Sudeste 20 Este 0 -- -- 53
2019-06-13 00:00:00 11.6 12 Este 20 Sudeste 0 -- -- 52
2019-06-12 23:00:00 13.1 13 Este 22 Este 0 -- -- 49
2019-06-12 22:00:00 10.6 5 Nordeste 9 Sudoeste 0 -- -- 63
2019-06-12 21:00:00 17.3 7 Sudoeste 21 Sudoeste 0 -- -- 28
2019-06-12 20:00:00 20.9 13 Oeste 31 Sudoeste 0 -- -- 22
2019-06-12 19:00:00 20.9 15 Sudoeste 31 Sur 0 -- -- 24
2019-06-12 18:00:00 20.9 17 Sudoeste 39 Sudoeste 0 -- -- 22
2019-06-12 17:00:00 19.2 12 Sudoeste 31 Sudoeste 0 -- -- 25
2019-06-12 16:00:00 20.1 19 Sudoeste 34 Oeste 0 -- -- 28
2019-06-12 15:00:00 18.7 10 Oeste 22 Oeste 0 -- -- 32
2019-06-12 14:00:00 16.4 10 Oeste 26 Oeste 0 -- -- 37
2019-06-12 13:00:00 15.7 5 Noroeste 14 Sudoeste 0 -- -- 46
2019-06-12 12:00:00 12.8 4 Norte 11 Oeste 0 -- -- 59
2019-06-12 11:00:00 12.6 6 Oeste 14 Noroeste 0 -- -- 54
2019-06-12 10:00:00 9.8 6 Noroeste 11 Noroeste 0 -- -- 68
2019-06-12 09:00:00 6.6 0 Calma 10 Oeste 0 -- -- 90
2019-06-12 08:00:00 2.5 0 Calma 3 Oeste 0 -- -- 97
2019-06-12 07:00:00 -0.1 0 Calma 3 Este 0 -- -- 98
2019-06-12 06:00:00 0 3 Este 5 Este 0 -- -- 97
2019-06-12 05:00:00 0.3 4 Nordeste 5 Este 0 -- -- 97
2019-06-12 04:00:00 0.9 4 Sudeste 5 Este 0 -- -- 96
2019-06-12 03:00:00 1.5 3 Este 5 Nordeste 0 -- -- 95
2019-06-12 02:00:00 2 3 Este 6 Nordeste 0 -- -- 94
2019-06-12 01:00:00 4 0 Calma 8 Sudeste 0 -- -- 87
2019-06-12 00:00:00 5.1 2 Este 13 Nordeste 0 -- -- 82
2019-06-11 23:00:00 6.3 7 Nordeste 15 Nordeste 0 -- -- 77
2019-06-11 22:00:00 8 5 Nordeste 24 Norte 0 -- -- 71
2019-06-11 21:00:00 11.7 17 Norte 30 Norte 0 -- -- 56
2019-06-11 20:00:00 12.7 13 Norte 28 Norte 0 -- -- 50
2019-06-11 19:00:00 13.6 12 Norte 24 Norte 0 -- -- 46
2019-06-11 18:00:00 13.1 4 Sudoeste 15 Sur 0.2 -- -- 49
2019-06-11 17:00:00 9.4 11 Nordeste 41 Norte 0 -- -- 66
2019-06-11 16:00:00 13.6 10 Noroeste 23 Noroeste 0 -- -- 55
2019-06-11 15:00:00 10.3 5 Nordeste 41 Norte 0.6 -- -- 73
2019-06-11 14:00:00 11.1 12 Norte 35 Noroeste 1.4 -- -- 75
2019-06-11 13:00:00 10 5 Noroeste 19 Nordeste 0.4 -- -- 75
2019-06-11 12:00:00 11.2 9 Nordeste 19 Nordeste 0 -- -- 63
2019-06-11 11:00:00 8.2 10 Norte 17 Norte 0.2 -- -- 78
2019-06-11 10:00:00 7.4 5 Nordeste 13 Norte 0 -- -- 83
2019-06-11 09:00:00 7.3 10 Norte 18 Nordeste 0 -- -- 80
2019-06-11 08:00:00 7.3 12 Nordeste 23 Norte 0 -- -- 79
2019-06-11 07:00:00 7.3 11 Nordeste 21 Norte 0 -- -- 79
2019-06-11 06:00:00 7.3 8 Nordeste 18 Nordeste 0 -- -- 78
2019-06-11 05:00:00 7.6 14 Nordeste 27 Nordeste 0 -- -- 76
2019-06-11 04:00:00 7.9 13 Nordeste 22 Nordeste 0 -- -- 73
2019-06-11 03:00:00 8.6 14 Nordeste 24 Este 0 -- -- 74
2019-06-11 02:00:00 9.9 12 Este 23 Este 0 -- -- 68
2019-06-11 01:00:00 10.5 11 Este 17 Este 0 -- -- 65
2019-06-11 00:00:00 10.5 10 Sudeste 22 Este 0 -- -- 64
2019-06-10 23:00:00 11 10 Este 24 Nordeste 0 -- -- 62
2019-06-10 22:00:00 12.6 13 Nordeste 31 Norte 0 -- -- 59
2019-06-10 21:00:00 15.5 15 Noroeste 29 Noroeste 0 -- -- 38
2019-06-10 20:00:00 18.6 21 Noroeste 37 Noroeste 0 -- -- 33
2019-06-10 19:00:00 19.4 23 Oeste 39 Noroeste 0 -- -- 32
2019-06-10 18:00:00 20.3 25 Oeste 41 Oeste 0 -- -- 30
2019-06-10 17:00:00 19.9 25 Oeste 40 Oeste 0 -- -- 27
2019-06-10 16:00:00 19.2 25 Oeste 41 Oeste 0 -- -- 27
2019-06-10 15:00:00 19.2 23 Oeste 37 Oeste 0 -- -- 31
2019-06-10 14:00:00 19.2 23 Oeste 38 Oeste 0 -- -- 36
2019-06-10 13:00:00 18.3 21 Oeste 35 Sudoeste 0 -- -- 41
2019-06-10 12:00:00 16.6 18 Oeste 33 Oeste 0 -- -- 54
2019-06-10 11:00:00 14.2 17 Oeste 24 Noroeste 0 -- -- 64
2019-06-10 10:00:00 12.3 17 Oeste 23 Oeste 0 -- -- 75
2019-06-10 09:00:00 9.8 9 Oeste 14 Oeste 0 -- -- 85
2019-06-10 08:00:00 9.1 0 Calma 3 Sudeste 0 -- -- 88
2019-06-10 07:00:00 7.3 0 Calma 5 Oeste 0 -- -- 97
2019-06-10 06:00:00 5 3 Noroeste 5 Noroeste 0 -- -- 97
2019-06-10 05:00:00 5.4 0 Calma 5 Noroeste 0 -- -- 96
2019-06-10 04:00:00 7.3 2 Norte 8 Noroeste 0 -- -- 93
2019-06-10 03:00:00 8.4 5 Noroeste 13 Noroeste 0 -- -- 88
2019-06-10 02:00:00 9.4 6 Noroeste 18 Norte 0 -- -- 87
2019-06-10 01:00:00 10.9 13 Norte 23 Norte 0 -- -- 82
2019-06-10 00:00:00 11.6 8 Nordeste 33 Norte 0 -- -- 80
2019-06-09 23:00:00 13.2 19 Nordeste 36 Norte 0 -- -- 74
2019-06-09 22:00:00 15.4 15 Nordeste 28 Nordeste 0 -- -- 66
2019-06-09 21:00:00 17.9 0 Calma 14 Noroeste 0 -- -- 51
2019-06-09 20:00:00 21.7 11 Noroeste 21 Oeste 0 -- -- 31
2019-06-09 19:00:00 23.1 13 Noroeste 26 Noroeste 0 -- -- 27
2019-06-09 18:00:00 24.9 15 Oeste 27 Oeste 0 -- -- 24
2019-06-09 17:00:00 23.2 12 Noroeste 24 Oeste 0 -- -- 26
2019-06-09 16:00:00 25.2 12 Oeste 32 Oeste 0 -- -- 24
2019-06-09 15:00:00 24.3 19 Sudoeste 36 Sudoeste 0 -- -- 25
2019-06-09 14:00:00 23.4 18 Sudoeste 44 Oeste 0 -- -- 24
2019-06-09 13:00:00 22.5 18 Sudoeste 40 Sudoeste 0 -- -- 30
2019-06-09 12:00:00 21.4 21 Sudoeste 32 Sudoeste 0 -- -- 35
2019-06-09 11:00:00 20.2 13 Sudoeste 25 Sudoeste 0 -- -- 45
2019-06-09 10:00:00 18.2 12 Sudoeste 27 Sudoeste 0 -- -- 53
2019-06-09 09:00:00 16.1 15 Sudoeste 28 Sudoeste 0 -- -- 61
2019-06-09 08:00:00 12.4 2 Sudeste 7 Norte 0 -- -- 79
2019-06-09 07:00:00 10.8 3 Nordeste 7 Este 0 -- -- 80
2019-06-09 06:00:00 12.2 4 Nordeste 7 Nordeste 0 -- -- 77
2019-06-09 05:00:00 10.5 5 Nordeste 10 Este 0 -- -- 83
2019-06-09 04:00:00 9.3 0 Calma 6 Este 0 -- -- 86
2019-06-09 03:00:00 8.8 4 Este 12 Este 0 -- -- 87
2019-06-09 02:00:00 9.1 6 Este 8 Este 0 -- -- 85
2019-06-09 01:00:00 10.6 4 Sudeste 9 Este 0 -- -- 80
2019-06-09 00:00:00 12.7 5 Este 14 Este 0 -- -- 69
2019-06-08 23:00:00 15.6 10 Este 22 Este 0 -- -- 57
2019-06-08 22:00:00 17.8 12 Este 22 Este 0 -- -- 51
2019-06-08 21:00:00 19.4 12 Este 22 Este 0 -- -- 47
2019-06-08 20:00:00 19.9 15 Este 25 Sudeste 0 -- -- 46
2019-06-08 19:00:00 21 16 Este 31 Este 0 -- -- 42
2019-06-08 18:00:00 21.8 17 Sudeste 27 Este 0 -- -- 40
2019-06-08 17:00:00 22.9 15 Este 31 Este 0 -- -- 36
2019-06-08 16:00:00 23.8 17 Sudeste 31 Este 0 -- -- 34
2019-06-08 15:00:00 22.6 14 Este 29 Este 0 -- -- 34
2019-06-08 14:00:00 21.6 15 Sudeste 31 Este 0 -- -- 37
2019-06-08 13:00:00 19.7 14 Este 32 Este 0 -- -- 39
2019-06-08 12:00:00 17.3 15 Este 32 Este 0 -- -- 42
2019-06-08 11:00:00 14.7 21 Sudeste 36 Este 0 -- -- 47
2019-06-08 10:00:00 12.9 19 Este 31 Sudeste 0 -- -- 51
2019-06-08 09:00:00 11.1 11 Este 22 Este 0 -- -- 62
2019-06-08 08:00:00 4.6 0 Calma 2 Sudeste 0 -- -- 92
2019-06-08 07:00:00 0.6 0 Calma 2 Este 0 -- -- 97
2019-06-08 06:00:00 0.8 0 Calma 3 Este 0 -- -- 95
2019-06-08 05:00:00 1.3 2 Este 4 Este 0 -- -- 95
2019-06-08 04:00:00 2 0 Calma 9 Este 0 -- -- 93
2019-06-08 03:00:00 2.4 4 Este 6 Este 0 -- -- 92
2019-06-08 02:00:00 3.1 0 Calma 14 Nordeste 0 -- -- 89
2019-06-08 01:00:00 4 6 Este 7 Este 0 -- -- 87
2019-06-08 00:00:00 5.4 5 Este 6 Este 0 -- -- 81
2019-06-07 23:00:00 7.7 2 Sudeste 13 Norte 0 -- -- 69
2019-06-07 22:00:00 10.6 11 Norte 13 Norte 0 -- -- 52
2019-06-07 21:00:00 15.2 11 Noroeste 24 Noroeste 0 -- -- 39
2019-06-07 20:00:00 17 14 Oeste 31 Oeste 0 -- -- 33
2019-06-07 19:00:00 17.7 18 Oeste 34 Oeste 0 -- -- 32
2019-06-07 18:00:00 17.7 19 Oeste 36 Oeste 0 -- -- 32
2019-06-07 17:00:00 17 21 Noroeste 39 Oeste 0 -- -- 33
2019-06-07 16:00:00 16.7 22 Oeste 40 Oeste 0 -- -- 37
2019-06-07 15:00:00 15.7 22 Oeste 39 Oeste 0 -- -- 40
2019-06-07 14:00:00 14.7 23 Oeste 35 Oeste 0 -- -- 43
2019-06-07 13:00:00 12.3 21 Oeste 38 Oeste 0 -- -- 50
2019-06-07 12:00:00 12 24 Oeste 45 Oeste 0 -- -- 52
2019-06-07 11:00:00 10.5 29 Oeste 44 Oeste 0 -- -- 61
2019-06-07 10:00:00 8.9 29 Oeste 56 Oeste 0 -- -- 67
2019-06-07 09:00:00 8.3 38 Oeste 52 Oeste 0 -- -- 70
2019-06-07 08:00:00 7.1 27 Oeste 39 Oeste 0 -- -- 84
2019-06-07 07:00:00 6.1 14 Oeste 26 Oeste 0.2 -- -- 87
2019-06-07 06:00:00 6 19 Oeste 40 Oeste 0.6 -- -- 90
2019-06-07 05:00:00 6.8 22 Oeste 37 Oeste 0 -- -- 91
2019-06-07 04:00:00 7.1 25 Oeste 45 Oeste 0 -- -- 92
2019-06-07 03:00:00 12.9 23 Oeste 44 Oeste 0 -- -- 63
2019-06-07 02:00:00 13.1 18 Sudoeste 39 Sur 0 -- -- 46
2019-06-07 01:00:00 13 16 Sur 27 Sudoeste 0 -- -- 45
2019-06-07 00:00:00 14.2 19 Sudoeste 33 Sudoeste 0 -- -- 40
2019-06-06 23:00:00 14.9 14 Sudoeste 36 Sur 0 -- -- 37
2019-06-06 22:00:00 16 15 Sudoeste 40 Sudoeste 0 -- -- 35
2019-06-06 21:00:00 18.8 19 Sudoeste 44 Sur 0 -- -- 31
2019-06-06 20:00:00 20.7 22 Sur 53 Sur 0 -- -- 28
2019-06-06 19:00:00 21 32 Sur 52 Sur 0 -- -- 28
2019-06-06 18:00:00 20.8 28 Sur 54 Sur 0 -- -- 28
2019-06-06 17:00:00 20.2 28 Sur 52 Sur 0 -- -- 32
2019-06-06 16:00:00 19.4 28 Sur 58 Sur 0 -- -- 33
2019-06-06 15:00:00 19.3 27 Sur 55 Sudoeste 0 -- -- 32
2019-06-06 14:00:00 18.2 22 Sur 47 Sudoeste 0 -- -- 35
2019-06-06 13:00:00 17.3 23 Sudoeste 39 Sudoeste 0 -- -- 38
2019-06-06 12:00:00 15.7 17 Sur 30 Sudoeste 0 -- -- 42
2019-06-06 11:00:00 14.1 10 Sudeste 20 Este 0 -- -- 62
2019-06-06 10:00:00 13.1 3 Nordeste 7 Este 0 -- -- 59
2019-06-06 09:00:00 10.8 3 Este 8 Nordeste 0 -- -- 80
2019-06-06 08:00:00 6.9 5 Este 6 Este 0 -- -- 96
2019-06-06 07:00:00 4.2 4 Este 6 Nordeste 0 -- -- 97
2019-06-06 06:00:00 5.1 3 Nordeste 10 Este 0 -- -- 96
2019-06-06 05:00:00 6.6 6 Este 10 Este 0 -- -- 92
2019-06-06 04:00:00 7.5 7 Este 13 Sudeste 0 -- -- 89
2019-06-06 03:00:00 7.7 9 Sudeste 15 Sudeste 0 -- -- 88
2019-06-06 02:00:00 8.4 6 Sudeste 12 Sudeste 0 -- -- 86
2019-06-06 01:00:00 7.7 5 Nordeste 8 Nordeste 0 -- -- 94
2019-06-06 00:00:00 8.3 4 Nordeste 10 Noroeste 0 -- -- 89
2019-06-05 23:00:00 8.9 7 Este 12 Este 0 -- -- 84
2019-06-05 22:00:00 10.1 5 Este 17 Norte 0 -- -- 81
2019-06-05 21:00:00 13 9 Oeste 24 Oeste 0 -- -- 50
2019-06-05 20:00:00 17 16 Oeste 24 Oeste 0 -- -- 35
2019-06-05 19:00:00 17.2 17 Oeste 30 Noroeste 0 -- -- 42
2019-06-05 18:00:00 16.2 15 Noroeste 35 Noroeste 0 -- -- 47
2019-06-05 17:00:00 15.4 13 Noroeste 30 Noroeste 0 -- -- 50
2019-06-05 16:00:00 15.3 20 Noroeste 31 Noroeste 0.2 -- -- 52
2019-06-05 15:00:00 12.6 26 Noroeste 41 Oeste 0 -- -- 64
2019-06-05 14:00:00 13.3 24 Oeste 43 Oeste 0 -- -- 64
2019-06-05 13:00:00 12 28 Oeste 45 Oeste 0 -- -- 71
2019-06-05 12:00:00 8.2 24 Oeste 59 Oeste 4.2 -- -- 90
2019-06-05 11:00:00 7.7 43 Oeste 67 Oeste 0.2 -- -- 83
2019-06-05 10:00:00 10.1 22 Oeste 41 Oeste 0 -- -- 82
2019-06-05 09:00:00 9.8 21 Oeste 35 Oeste 0 -- -- 89
2019-06-05 08:00:00 8.9 16 Oeste 30 Oeste 0 -- -- 92
2019-06-05 07:00:00 9.1 19 Oeste 39 Oeste 1.2 -- -- 91
2019-06-05 06:00:00 11.5 3 Oeste 8 Noroeste 1.2 -- -- 96
2019-06-05 05:00:00 11.5 2 Noroeste 6 Oeste 1.8 -- -- 96
2019-06-05 04:00:00 11.6 3 Oeste 9 Sur 2.2 -- -- 95
2019-06-05 03:00:00 12.1 10 Nordeste 19 Norte 0.8 -- -- 91
2019-06-05 02:00:00 12.5 4 Oeste 12 Noroeste 0.4 -- -- 85
2019-06-05 01:00:00 12.1 8 Oeste 12 Oeste 0 -- -- 72
2019-06-05 00:00:00 12.6 5 Noroeste 11 Oeste 0 -- -- 67
2019-06-04 23:00:00 14.5 6 Oeste 15 Oeste 0 -- -- 58
2019-06-04 22:00:00 15.8 0 Calma 20 Oeste 0 -- -- 55
2019-06-04 21:00:00 20.1 14 Oeste 38 Sudoeste 0 -- -- 42
2019-06-04 20:00:00 24.5 23 Sudoeste 46 Sudoeste 0 -- -- 29
2019-06-04 19:00:00 25.8 28 Sudoeste 49 Sudoeste 0 -- -- 29
2019-06-04 18:00:00 26.5 23 Sudoeste 41 Sur 0 -- -- 31
2019-06-04 17:00:00 26.7 24 Sudoeste 51 Sudoeste 0 -- -- 32
2019-06-04 16:00:00 26.7 23 Sudoeste 53 Sudoeste 0 -- -- 31
2019-06-04 15:00:00 25.8 30 Sudoeste 54 Sur 0 -- -- 32
2019-06-04 14:00:00 25.4 28 Sudoeste 53 Sudoeste 0 -- -- 33
2019-06-04 13:00:00 24.9 27 Sudoeste 50 Sudoeste 0 -- -- 36
2019-06-04 12:00:00 24 26 Sudoeste 44 Sur 0 -- -- 38
2019-06-04 11:00:00 22.4 25 Sudoeste 40 Sudoeste 0 -- -- 42
2019-06-04 10:00:00 21 24 Sudoeste 43 Sur 0 -- -- 47
2019-06-04 09:00:00 19.4 20 Sudoeste 34 Sudoeste 0 -- -- 47
2019-06-04 08:00:00 12 5 Este 12 Nordeste 0 -- -- 69
2019-06-04 07:00:00 7.9 5 Nordeste 12 Nordeste 0 -- -- 75
2019-06-04 06:00:00 6.5 6 Nordeste 8 Nordeste 0 -- -- 81
2019-06-04 05:00:00 6.9 4 Este 6 Este 0 -- -- 78
2019-06-04 04:00:00 8.6 2 Noroeste 12 Este 0 -- -- 69
2019-06-04 03:00:00 8.4 5 Este 7 Este 0 -- -- 74
2019-06-04 02:00:00 9.1 4 Este 7 Nordeste 0 -- -- 71
2019-06-04 01:00:00 10.5 4 Este 9 Nordeste 0 -- -- 67
2019-06-04 00:00:00 12.2 5 Nordeste 10 Sudoeste 0 -- -- 59
2019-06-03 23:00:00 18.1 13 Sudoeste 17 Sudoeste 0 -- -- 31
2019-06-03 22:00:00 19.9 11 Sudoeste 17 Sur 0 -- -- 32
2019-06-03 21:00:00 24.6 12 Sudoeste 34 Sur 0 -- -- 26
2019-06-03 20:00:00 27.8 15 Sur 36 Sur 0 -- -- 23
2019-06-03 19:00:00 29.1 22 Sur 40 Sudoeste 0 -- -- 22
2019-06-03 18:00:00 29.9 19 Sudoeste 48 Sudoeste 0 -- -- 22
2019-06-03 17:00:00 29.8 19 Sudoeste 43 Sudoeste 0 -- -- 22
2019-06-03 16:00:00 29.2 24 Sudoeste 58 Sudoeste 0 -- -- 24
2019-06-03 15:00:00 29.1 22 Sudoeste 41 Sudoeste 0 -- -- 26
2019-06-03 14:00:00 28.4 18 Sudoeste 35 Sudoeste 0 -- -- 27
2019-06-03 13:00:00 26.9 11 Sudoeste 22 Sudoeste 0 -- -- 34
2019-06-03 12:00:00 24 8 Oeste 15 Oeste 0 -- -- 37
2019-06-03 11:00:00 22.3 4 Noroeste 13 Oeste 0 -- -- 47
2019-06-03 10:00:00 19.7 2 Oeste 6 Noroeste 0 -- -- 58
2019-06-03 09:00:00 16.1 0 Calma 4 Oeste 0 -- -- 76
2019-06-03 08:00:00 12.8 0 Calma 4 Sur 0 -- -- 90
2019-06-03 07:00:00 10.9 2 Oeste 5 Nordeste 0 -- -- 92
2019-06-03 06:00:00 10.8 5 Nordeste 9 Este 0 -- -- 92
2019-06-03 05:00:00 10.8 3 Este 7 Nordeste 0 -- -- 93
2019-06-03 04:00:00 11.1 3 Este 7 Nordeste 0 -- -- 91
2019-06-03 03:00:00 11.8 3 Nordeste 12 Este 0 -- -- 89
2019-06-03 02:00:00 13.2 8 Este 10 Este 0 -- -- 84
2019-06-03 01:00:00 14.9 8 Este 12 Este 0 -- -- 79
2019-06-03 00:00:00 17.6 3 Sudeste 51 Noroeste 0 -- -- 62
2019-06-02 23:00:00 18.7 23 Noroeste 55 Sudoeste 1 -- -- 59
2019-06-02 22:00:00 21.5 5 Sudeste 18 Noroeste 0 -- -- 45
2019-06-02 21:00:00 22.3 0 Calma -- -- 0 -- -- 52
2019-06-02 20:00:00 25.1 0 Calma 4 Sur 0 -- -- 54
2019-06-02 19:00:00 27.5 4 Oeste 20 Sudoeste 0 -- -- 36
2019-06-02 18:00:00 28.7 6 Sudoeste 19 Sur 0 -- -- 28
2019-06-02 17:00:00 29.5 6 Oeste 18 Sudoeste 0 -- -- 23
2019-06-02 16:00:00 30.4 8 Sudoeste 19 Sur 0 -- -- 24
2019-06-02 15:00:00 30.9 6 Oeste 21 Oeste 0 -- -- 25
2019-06-02 14:00:00 28.5 11 Sudoeste 20 Sudeste 0 -- -- 28
2019-06-02 13:00:00 28.2 8 Oeste 21 Oeste 0 -- -- 28
2019-06-02 12:00:00 26 11 Sudoeste 19 Sudoeste 0 -- -- 31
2019-06-02 11:00:00 24.2 13 Sudoeste 24 Sudoeste 0 -- -- 33
2019-06-02 10:00:00 22.2 11 Sudoeste 19 Sudoeste 0 -- -- 38
2019-06-02 09:00:00 19 0 Calma 6 Este 0 -- -- 47
2019-06-02 08:00:00 12.3 4 Este 9 Nordeste 0 -- -- 73
2019-06-02 07:00:00 7.7 5 Nordeste 10 Nordeste 0 -- -- 84
2019-06-02 06:00:00 7.4 8 Nordeste 10 Este 0 -- -- 86
2019-06-02 05:00:00 8.8 5 Nordeste 10 Nordeste 0 -- -- 80
2019-06-02 04:00:00 10 5 Este 8 Nordeste 0 -- -- 76
2019-06-02 03:00:00 11.5 4 Este 8 Nordeste 0 -- -- 68
2019-06-02 02:00:00 16.2 5 Este 17 Este 0 -- -- 51
2019-06-02 01:00:00 18.4 13 Este 18 Este 0 -- -- 43
2019-06-02 00:00:00 18.1 6 Sudeste 15 Este 0 -- -- 44
2019-06-01 23:00:00 19 9 Este 14 Este 0 -- -- 43
2019-06-01 22:00:00 20.8 13 Este 18 Este 0 -- -- 39
2019-06-01 21:00:00 27.6 8 Sudeste 13 Este 0 -- -- 24
2019-06-01 20:00:00 30.2 4 Sur 13 Este 0 -- -- 19
2019-06-01 19:00:00 30.4 9 Sudeste 15 Este 0 -- -- 18
2019-06-01 18:00:00 31.1 6 Este 15 Nordeste 0 -- -- 17
2019-06-01 17:00:00 30.6 4 Nordeste 18 Norte 0 -- -- 18
2019-06-01 16:00:00 30.3 6 Este 23 Sudoeste 0 -- -- 19
2019-06-01 15:00:00 28.9 12 Oeste 21 Oeste 0 -- -- 20
2019-06-01 14:00:00 28 5 Norte 22 Sur 0 -- -- 24
2019-06-01 13:00:00 26.6 6 Sur 19 Sudoeste 0 -- -- 31
2019-06-01 12:00:00 24.8 8 Sur 21 Sur 0 -- -- 34
2019-06-01 11:00:00 22.7 10 Sur 19 Sur 0 -- -- 40
2019-06-01 10:00:00 20.3 10 Sur 15 Sur 0 -- -- 46
2019-06-01 09:00:00 16.7 4 Este 9 Este 0 -- -- 57
2019-06-01 08:00:00 9.4 0 Calma 5 Este 0 -- -- 78
2019-06-01 07:00:00 5.3 4 Este 5 Este 0 -- -- 88
2019-06-01 06:00:00 5.5 4 Este 6 Este 0 -- -- 88
2019-06-01 05:00:00 5.9 5 Este 8 Este 0 -- -- 88
2019-06-01 04:00:00 6.8 3 Este 5 Nordeste 0 -- -- 85
2019-06-01 03:00:00 7.9 2 Sudeste 8 Nordeste 0 -- -- 83
2019-06-01 02:00:00 9.2 3 Este 10 Nordeste 0 -- -- 77
2019-06-01 01:00:00 10.3 8 Nordeste 10 Nordeste 0 -- -- 72
2019-06-01 00:00:00 13 0 Calma 13 Este 0 -- -- 63
2019-05-31 23:00:00 16 4 Sudeste 14 Este 0 -- -- 55
2019-05-31 22:00:00 19.3 10 Este 19 Sudeste 0 -- -- 47
2019-05-31 21:00:00 24.5 13 Este 24 Sudeste 0 -- -- 36
2019-05-31 20:00:00 27.1 14 Este 28 Este 0 -- -- 25
2019-05-31 19:00:00 29.8 8 Este 21 Este 0 -- -- 21
2019-05-31 18:00:00 29.5 8 Sudeste 15 Este 0 -- -- 21
2019-05-31 17:00:00 28.1 9 Oeste 20 Oeste 0 -- -- 20
2019-05-31 16:00:00 28.3 6 Nordeste 26 Norte 0 -- -- 19
2019-05-31 15:00:00 26.5 7 Sudoeste 17 Sur 0 -- -- 23
2019-05-31 14:00:00 26.3 5 Sur 17 Oeste 0 -- -- 22
2019-05-31 13:00:00 25.3 6 Noroeste 14 Noroeste 0 -- -- 24
2019-05-31 12:00:00 24.2 3 Nordeste 16 Norte 0 -- -- 29
2019-05-31 11:00:00 21.4 4 Sudoeste 12 Oeste 0 -- -- 44
2019-05-31 10:00:00 18.7 7 Oeste 12 Oeste 0 -- -- 52
2019-05-31 09:00:00 13.7 3 Oeste 5 Sudoeste 0 -- -- 68
2019-05-31 08:00:00 7.8 0 Calma 9 Nordeste 0 -- -- 85
2019-05-31 07:00:00 3.3 5 Este 6 Este 0 -- -- 93
2019-05-31 06:00:00 3.6 5 Nordeste 8 Nordeste 0 -- -- 95
2019-05-31 05:00:00 4 3 Sudeste 8 Este 0 -- -- 91
2019-05-31 04:00:00 4.9 4 Sudeste 9 Este 0 -- -- 89
2019-05-31 03:00:00 5.9 5 Este 8 Este 0 -- -- 85
2019-05-31 02:00:00 7.3 3 Este 7 Este 0 -- -- 80
2019-05-31 01:00:00 11.3 3 Sur 9 Nordeste 0 -- -- 69
2019-05-31 00:00:00 9.1 2 Oeste 9 Norte 0 -- -- 74
2019-05-30 23:00:00 10.9 4 Este 6 Este 0 -- -- 63
2019-05-30 22:00:00 15 4 Nordeste 14 Nordeste 0 -- -- 49
2019-05-30 21:00:00 22.6 8 Nordeste 27 Nordeste 0 -- -- 30
2019-05-30 20:00:00 23.9 18 Nordeste 28 Nordeste 0 -- -- 25
2019-05-30 19:00:00 25.3 14 Nordeste 31 Nordeste 0 -- -- 21
2019-05-30 18:00:00 25.6 16 Norte 34 Norte 0 -- -- 21
2019-05-30 17:00:00 25.2 15 Nordeste 33 Nordeste 0 -- -- 20
2019-05-30 16:00:00 25 17 Norte 30 Norte 0 -- -- 21
2019-05-30 15:00:00 24.8 15 Nordeste 29 Norte 0 -- -- 24
2019-05-30 14:00:00 24 18 Nordeste 36 Norte 0 -- -- 27
2019-05-30 13:00:00 22.8 13 Norte 26 Nordeste 0 -- -- 32
2019-05-30 12:00:00 20.6 12 Norte 22 Norte 0 -- -- 43
2019-05-30 11:00:00 18.6 10 Norte 23 Nordeste 0 -- -- 46
2019-05-30 10:00:00 14.6 8 Oeste 16 Oeste 0 -- -- 59
2019-05-30 09:00:00 10.6 8 Noroeste 13 Oeste 0 -- -- 71
2019-05-30 08:00:00 6.8 7 Oeste 12 Oeste 0 -- -- 87
2019-05-30 07:00:00 2.6 3 Norte 6 Nordeste 0 -- -- 94
2019-05-30 06:00:00 3.6 5 Este 9 Sur 0 -- -- 91
2019-05-30 05:00:00 4.7 4 Norte 8 Norte 0 -- -- 86
2019-05-30 04:00:00 4 3 Sudeste 9 Nordeste 0 -- -- 92
2019-05-30 03:00:00 5.9 5 Oeste 13 Noroeste 0 -- -- 87
2019-05-30 02:00:00 4.8 5 Noroeste 9 Noroeste 0 -- -- 89
2019-05-30 01:00:00 5.5 0 Calma 5 Sur 0 -- -- 88
2019-05-30 00:00:00 7.1 0 Calma 14 Norte 0 -- -- 81
2019-05-29 23:00:00 11.2 10 Norte 28 Norte 0 -- -- 66
2019-05-29 22:00:00 12.2 17 Norte 34 Norte 0 -- -- 62
2019-05-29 21:00:00 14.9 22 Norte 38 Noroeste 0 -- -- 53
2019-05-29 20:00:00 17 26 Norte 37 Norte 0 -- -- 48
2019-05-29 19:00:00 17.7 26 Norte 37 Norte 0 -- -- 46
2019-05-29 18:00:00 18.7 22 Norte 36 Norte 0 -- -- 46
2019-05-29 17:00:00 17.9 22 Norte 38 Norte 0 -- -- 48
2019-05-29 16:00:00 18.1 26 Norte 38 Norte 0 -- -- 44
2019-05-29 15:00:00 17.5 23 Norte 48 Nordeste 0 -- -- 49
2019-05-29 14:00:00 16.4 21 Norte 37 Norte 0 -- -- 50
2019-05-29 13:00:00 15.2 19 Norte 39 Norte 0 -- -- 55
2019-05-29 12:00:00 14.1 28 Norte 38 Norte 0 -- -- 56
2019-05-29 11:00:00 12.2 27 Norte 42 Norte 0 -- -- 60
2019-05-29 10:00:00 11.1 25 Norte 36 Noroeste 0 -- -- 64
2019-05-29 09:00:00 7.7 10 Noroeste 14 Noroeste 0 -- -- 74
2019-05-29 08:00:00 4.7 4 Oeste 12 Oeste 0 -- -- 86
2019-05-29 07:00:00 2.2 2 Nordeste 13 Noroeste 0 -- -- 91
2019-05-29 06:00:00 2.3 2 Sur 12 Noroeste 0 -- -- 91
2019-05-29 05:00:00 4.7 11 Norte 15 Norte 0 -- -- 80
2019-05-29 04:00:00 3.6 2 Sudoeste 9 Norte 0 -- -- 83
2019-05-29 03:00:00 5.3 2 Nordeste 21 Norte 0 -- -- 74
2019-05-29 02:00:00 6.2 8 Norte 22 Norte 0 -- -- 71
2019-05-29 01:00:00 7 16 Norte 29 Norte 0 -- -- 71
2019-05-29 00:00:00 7.1 9 Nordeste 19 Norte 0 -- -- 70
2019-05-28 23:00:00 8.5 15 Norte 30 Norte 0 -- -- 63
2019-05-28 22:00:00 9.2 17 Norte 33 Norte 0 -- -- 62
2019-05-28 21:00:00 12 28 Norte 37 Norte 0 -- -- 53
2019-05-28 20:00:00 14.1 27 Norte 41 Nordeste 0 -- -- 47
2019-05-28 19:00:00 15.1 30 Norte 47 Norte 0 -- -- 46
2019-05-28 18:00:00 15.9 31 Norte 48 Nordeste 0 -- -- 45
2019-05-28 17:00:00 16.8 27 Norte 48 Nordeste 0 -- -- 42
2019-05-28 16:00:00 16.6 21 Norte 34 Norte 0 -- -- 45
2019-05-28 15:00:00 16.6 19 Norte 33 Norte 0 -- -- 45
2019-05-28 14:00:00 16.5 14 Noroeste 34 Norte 0 -- -- 45
2019-05-28 13:00:00 15 20 Norte 33 Norte 0 -- -- 45
2019-05-28 12:00:00 13 18 Norte 36 Noroeste 0 -- -- 49
2019-05-28 11:00:00 12.2 25 Norte 37 Norte 0 -- -- 50
2019-05-28 10:00:00 10.9 22 Norte 37 Norte 0 -- -- 54
2019-05-28 09:00:00 8.9 25 Norte 36 Norte 0 -- -- 63
2019-05-28 08:00:00 6.8 6 Norte 23 Norte 0 -- -- 71
2019-05-28 07:00:00 4.6 2 Sudeste 11 Noroeste 0 -- -- 81
2019-05-28 06:00:00 6 8 Norte 15 Norte 0 -- -- 75
2019-05-28 05:00:00 5 2 Sur 13 Norte 0 -- -- 83
2019-05-28 04:00:00 4.3 3 Sudoeste 8 Nordeste 0 -- -- 86
2019-05-28 03:00:00 6.7 5 Nordeste 13 Nordeste 0 -- -- 80
2019-05-28 02:00:00 8.2 9 Nordeste 14 Este 0 -- -- 80
2019-05-28 01:00:00 9.1 5 Este 20 Este 0 -- -- 73
2019-05-28 00:00:00 10.1 7 Nordeste 17 Este 0 -- -- 77
2019-05-27 23:00:00 11.1 8 Nordeste 23 Norte 0 -- -- 76
2019-05-27 22:00:00 12.6 11 Nordeste 32 Norte 0 -- -- 67
2019-05-27 21:00:00 15.2 23 Norte 38 Norte 0 -- -- 57
2019-05-27 20:00:00 18.8 23 Norte 35 Norte 0 -- -- 48
2019-05-27 19:00:00 17.6 22 Norte 40 Norte 0 -- -- 53
2019-05-27 18:00:00 20.4 30 Norte 39 Norte 0 -- -- 48
2019-05-27 17:00:00 20.5 19 Norte 34 Norte 0 -- -- 43
2019-05-27 16:00:00 21.8 19 Norte 32 Norte 0 -- -- 42
2019-05-27 15:00:00 22.2 6 Sudoeste 20 Oeste 0 -- -- 40
2019-05-27 14:00:00 21.8 10 Noroeste 22 Oeste 0 -- -- 42
2019-05-27 13:00:00 20.3 12 Noroeste 22 Noroeste 0 -- -- 44
2019-05-27 12:00:00 18.5 10 Noroeste 18 Oeste 0 -- -- 47
2019-05-27 11:00:00 16.6 10 Oeste 22 Oeste 0 -- -- 55
2019-05-27 10:00:00 13.2 10 Oeste 15 Noroeste 0 -- -- 69
2019-05-27 09:00:00 10.2 9 Noroeste 15 Oeste 0 -- -- 81
2019-05-27 08:00:00 5.7 0 Calma 3 Sudeste 0 -- -- 97
2019-05-27 07:00:00 2.9 0 Calma 5 Este 0 -- -- 97
2019-05-27 06:00:00 2.4 0 Calma 2 Sudoeste 0 -- -- 97
2019-05-27 05:00:00 3 0 Calma 5 Nordeste 0 -- -- 97
2019-05-27 04:00:00 3.4 3 Este 8 Nordeste 0 -- -- 96
2019-05-27 03:00:00 4.5 0 Calma 6 Nordeste 0 -- -- 96
2019-05-27 02:00:00 5.2 5 Sudeste 10 Sur 0 -- -- 93
2019-05-27 01:00:00 6.7 5 Este 8 Este 0 -- -- 88
2019-05-27 00:00:00 9.1 4 Este 13 Nordeste 0 -- -- 80
2019-05-26 23:00:00 10.8 6 Norte 20 Norte 0 -- -- 72
2019-05-26 22:00:00 12.7 15 Norte 27 Norte 0 -- -- 68
2019-05-26 21:00:00 15 12 Nordeste 32 Norte 0 -- -- 61
2019-05-26 20:00:00 17.1 25 Norte 35 Norte 0 -- -- 52
2019-05-26 19:00:00 18.3 21 Nordeste 34 Norte 0 -- -- 47
2019-05-26 18:00:00 18.9 23 Norte 34 Norte 0 -- -- 45
2019-05-26 17:00:00 19.3 17 Norte 37 Norte 0 -- -- 44
2019-05-26 16:00:00 18.3 17 Norte 46 Norte 0 -- -- 43
2019-05-26 15:00:00 17.8 28 Norte 41 Norte 0 -- -- 47
2019-05-26 14:00:00 17.4 20 Norte 33 Norte 0 -- -- 49
2019-05-26 13:00:00 16.3 19 Norte 37 Norte 0 -- -- 53
2019-05-26 12:00:00 14.2 18 Norte 30 Norte 0 -- -- 56
2019-05-26 11:00:00 12.7 17 Norte 35 Norte 0 -- -- 61
2019-05-26 10:00:00 10.2 20 Norte 31 Noroeste 0 -- -- 69
2019-05-26 09:00:00 9.1 13 Noroeste 24 Noroeste 0 -- -- 75
2019-05-26 08:00:00 6.9 11 Noroeste 20 Noroeste 0 -- -- 79
2019-05-26 07:00:00 4.4 4 Noroeste 15 Norte 0 -- -- 86
2019-05-26 06:00:00 3 3 Noroeste 28 Norte 0 -- -- 91
2019-05-26 05:00:00 6.7 17 Norte 27 Norte 0 -- -- 74
2019-05-26 04:00:00 5.5 14 Norte 27 Norte 0 -- -- 81
2019-05-26 03:00:00 6.8 14 Norte 27 Norte 0 -- -- 78
2019-05-26 02:00:00 6.8 10 Norte 15 Norte 0 -- -- 81
2019-05-26 01:00:00 7.7 6 Nordeste 31 Norte 0 -- -- 82
2019-05-26 00:00:00 8.3 11 Norte 27 Norte 0 -- -- 81
2019-05-25 23:00:00 9.1 21 Norte 39 Norte 0 -- -- 77
2019-05-25 22:00:00 9.9 27 Norte 41 Norte 0 -- -- 72
2019-05-25 21:00:00 11.9 24 Norte 38 Norte 0 -- -- 67
2019-05-25 20:00:00 14.3 25 Norte 42 Norte 0 -- -- 56
2019-05-25 19:00:00 16.1 23 Norte 36 Norte 0 -- -- 53
2019-05-25 18:00:00 17 25 Norte 36 Norte 0 -- -- 49
2019-05-25 17:00:00 16.6 21 Norte 39 Norte 0 -- -- 53
2019-05-25 16:00:00 16.2 25 Norte 47 Nordeste 0 -- -- 52
2019-05-25 15:00:00 14.6 22 Norte 37 Norte 0 -- -- 56
2019-05-25 14:00:00 14.4 26 Norte 39 Nordeste 0 -- -- 59
2019-05-25 13:00:00 14.1 24 Norte 42 Norte 0 -- -- 60
2019-05-25 12:00:00 12.5 27 Norte 43 Norte 0 -- -- 62
2019-05-25 11:00:00 13 25 Norte 45 Norte 0 -- -- 62
2019-05-25 10:00:00 10.3 23 Norte 40 Norte 0 -- -- 69
2019-05-25 09:00:00 10.8 22 Norte 40 Noroeste 0 -- -- 68
2019-05-25 08:00:00 9 17 Norte 27 Norte 0 -- -- 77
2019-05-25 07:00:00 5.8 4 Sudoeste 12 Noroeste 0 -- -- 90
2019-05-25 06:00:00 7.5 4 Oeste 14 Noroeste 0 -- -- 83
2019-05-25 05:00:00 8.4 5 Noroeste 26 Noroeste 0 -- -- 81
2019-05-25 04:00:00 8.9 14 Norte 27 Norte 0 -- -- 78
2019-05-25 03:00:00 9.3 15 Norte 30 Norte 0 -- -- 79
2019-05-25 02:00:00 9.3 17 Norte 28 Norte 0 -- -- 81
2019-05-25 01:00:00 9.3 10 Noroeste 18 Oeste 0 -- -- 81
2019-05-25 00:00:00 9.2 7 Noroeste 20 Oeste 0 -- -- 80
2019-05-24 23:00:00 8.7 13 Noroeste 28 Norte 0 -- -- 81
2019-05-24 22:00:00 10.1 17 Norte 33 Norte 0 -- -- 75
2019-05-24 21:00:00 10.8 20 Norte 40 Norte 0 -- -- 71
2019-05-24 20:00:00 12.8 30 Norte 42 Norte 0 -- -- 64
2019-05-24 19:00:00 14.7 29 Norte 42 Norte 0 -- -- 54
2019-05-24 18:00:00 15.8 27 Norte 41 Norte 0 -- -- 55
2019-05-24 17:00:00 14.8 26 Norte 48 Norte 0 -- -- 55
2019-05-24 16:00:00 16.1 31 Norte 44 Norte 0 -- -- 53
2019-05-24 15:00:00 15 28 Norte 41 Norte 0 -- -- 61
2019-05-24 14:00:00 14.1 19 Nordeste 34 Norte 0 -- -- 65
2019-05-24 13:00:00 12.4 20 Norte 31 Norte 0 -- -- 73
2019-05-24 12:00:00 12.2 18 Nordeste 27 Nordeste 0 -- -- 75
2019-05-24 11:00:00 12.4 14 Nordeste 27 Nordeste 0 -- -- 78
2019-05-24 10:00:00 10.4 9 Nordeste 25 Nordeste 0 -- -- 84
2019-05-24 09:00:00 9.6 15 Nordeste 27 Norte 0 -- -- 86
2019-05-24 08:00:00 9.5 18 Norte 40 Norte 0 -- -- 86
2019-05-24 07:00:00 9.4 21 Nordeste 36 Norte 0 -- -- 85
2019-05-24 06:00:00 10.2 17 Nordeste 30 Norte 0 -- -- 86
2019-05-24 05:00:00 10.2 21 Nordeste 35 Norte 0 -- -- 93
2019-05-24 04:00:00 10.5 18 Nordeste 28 Nordeste 0 -- -- 92
2019-05-24 03:00:00 11.2 10 Norte 22 Nordeste 0 -- -- 90
2019-05-24 02:00:00 11.6 11 Este 26 Nordeste 0 -- -- 92
2019-05-24 01:00:00 12.2 11 Nordeste 22 Nordeste 0.2 -- -- 93
2019-05-24 00:00:00 11.5 0 Calma 20 Este 0.2 -- -- 93
2019-05-23 23:00:00 12.9 8 Sudeste 23 Este 1 -- -- 88
2019-05-23 22:00:00 13.1 5 Nordeste 20 Sudeste 0 -- -- 86
2019-05-23 21:00:00 14.8 8 Este 31 Nordeste 0.2 -- -- 78
2019-05-23 20:00:00 16.1 15 Norte 32 Noroeste 0 -- -- 70
2019-05-23 19:00:00 17.2 12 Nordeste 60 Sudoeste 1.2 -- -- 67
2019-05-23 18:00:00 21.7 8 Oeste 16 Noroeste 0 -- -- 40
2019-05-23 17:00:00 22.1 9 Noroeste 34 Oeste 0 -- -- 40
2019-05-23 16:00:00 22.4 14 Sudoeste 28 Oeste 0 -- -- 38
2019-05-23 15:00:00 23.8 6 Oeste 13 Sur 0 -- -- 38
2019-05-23 14:00:00 22.9 5 Oeste 14 Oeste 0 -- -- 44
2019-05-23 13:00:00 21.7 4 Oeste 11 Oeste 0 -- -- 44
2019-05-23 12:00:00 20.3 7 Oeste 12 Noroeste 0 -- -- 50
2019-05-23 11:00:00 19.3 3 Sudoeste 5 Sudeste 0 -- -- 50
2019-05-23 10:00:00 16.1 2 Oeste 7 Oeste 0 -- -- 56
2019-05-23 09:00:00 12.2 3 Sudoeste 9 Oeste 0 -- -- 79
2019-05-23 08:00:00 10 0 Calma 4 Oeste 0 -- -- 87
2019-05-23 07:00:00 8.8 0 Calma 5 Sur 0 -- -- 89
2019-05-23 06:00:00 7.8 0 Calma 4 Noroeste 0 -- -- 91
2019-05-23 05:00:00 6.8 0 Calma 4 Nordeste 0 -- -- 91
2019-05-23 04:00:00 6.6 0 Calma 6 Este 0 -- -- 89
2019-05-23 03:00:00 7 5 Este 8 Este 0 -- -- 88
2019-05-23 02:00:00 7.7 4 Este 7 Nordeste 0 -- -- 86
2019-05-23 01:00:00 9 5 Nordeste 6 Nordeste 0 -- -- 82
2019-05-23 00:00:00 10.9 6 Este 13 Este 0 -- -- 77
2019-05-22 23:00:00 13.5 5 Este 14 Sudeste 0 -- -- 69
2019-05-22 22:00:00 15.4 10 Nordeste 20 Norte 0 -- -- 59
2019-05-22 21:00:00 17.2 13 Norte 18 Norte 0 -- -- 53
2019-05-22 20:00:00 21.2 10 Oeste 21 Oeste 0 -- -- 34
2019-05-22 19:00:00 23.8 12 Oeste 23 Oeste 0 -- -- 28
2019-05-22 18:00:00 23.8 15 Oeste 27 Oeste 0 -- -- 31
2019-05-22 17:00:00 23.6 16 Oeste 29 Sudoeste 0 -- -- 28
2019-05-22 16:00:00 23.2 13 Oeste 27 Oeste 0 -- -- 33
2019-05-22 15:00:00 22.3 8 Oeste 31 Oeste 0 -- -- 33
2019-05-22 14:00:00 21.3 12 Oeste 23 Oeste 0 -- -- 36
2019-05-22 13:00:00 21.7 3 Nordeste 14 Oeste 0 -- -- 40
2019-05-22 12:00:00 18.7 5 Oeste 12 Oeste 0 -- -- 49
2019-05-22 11:00:00 17.1 3 Sudoeste 7 Oeste 0 -- -- 53
2019-05-22 10:00:00 13.3 2 Noroeste 6 Oeste 0 -- -- 62
2019-05-22 09:00:00 10.9 0 Calma 7 Este 0 -- -- 72
2019-05-22 08:00:00 5.5 3 Nordeste 6 Nordeste 0 -- -- 89
2019-05-22 07:00:00 2 0 Calma 6 Este 0 -- -- 96
2019-05-22 06:00:00 2.2 5 Este 6 Este 0 -- -- 95
2019-05-22 05:00:00 2.9 0 Calma 5 Sudeste 0 -- -- 94
2019-05-22 04:00:00 3.9 4 Este 8 Este 0 -- -- 93
2019-05-22 03:00:00 4.8 3 Este 5 Nordeste 0 -- -- 91
2019-05-22 02:00:00 5.9 4 Este 8 Este 0 -- -- 85
2019-05-22 01:00:00 8.7 3 Sur 13 Este 0 -- -- 73
2019-05-22 00:00:00 9.6 4 Este 26 Nordeste 0 -- -- 70